Time;durP1;ratioP1;P1;durP2;ratioP2;P2;SDS_P1;SDS_P2;PMS_P1;PMS_P2;Temp;Humidity;BMP_temperature;BMP_pressure;BME280_temperature;BME280_humidity;BME280_pressure;Samples;Min_cycle;Max_cycle;Signal;HPM_P1;HPM_P2
2024/01/25 00:00:50;;;;;;;11.80;2.83;;;;;;;;;;5074062;28;20563;-27
2024/01/25 00:03:17;;;;;;;13.13;2.95;;;;;;;;;;5074008;28;20502;-27
2024/01/25 00:05:44;;;;;;;11.48;2.60;;;;;;;;;;5070661;28;20024;-27
2024/01/25 00:08:11;;;;;;;11.18;2.58;;;;;;;;;;5074060;28;20027;-27
2024/01/25 00:10:38;;;;;;;13.30;2.65;;;;;;;;;;5073995;28;20024;-28
2024/01/25 00:13:05;;;;;;;8.85;2.45;;;;;;;;;;5074038;28;20031;-27
2024/01/25 00:15:32;;;;;;;13.75;2.65;;;;;;;;;;5073048;28;20031;-26
2024/01/25 00:17:59;;;;;;;8.23;2.20;;;;;;;;;;5070156;28;20025;-27
2024/01/25 00:20:26;;;;;;;9.48;2.85;;;;;;;;;;5073851;28;20028;-27
2024/01/25 00:22:53;;;;;;;11.00;2.47;;;;;;;;;;5073672;28;20025;-26
2024/01/25 00:25:20;;;;;;;7.18;2.05;;;;;;;;;;5073705;28;20020;-27
2024/01/25 00:27:47;;;;;;;13.80;2.47;;;;;;;;;;5072479;28;20411;-26
2024/01/25 00:30:14;;;;;;;11.25;2.50;;;;;;;;;;5069945;28;20098;-27
2024/01/25 00:32:41;;;;;;;12.40;2.67;;;;;;;;;;5073602;28;20028;-26
2024/01/25 00:35:10;;;;;;;16.98;2.45;;;;;;;;;;5073579;28;20020;-28
2024/01/25 00:37:37;;;;;;;10.85;2.50;;;;;;;;;;5073348;28;20034;-26
2024/01/25 00:40:05;;;;;;;11.05;2.60;;;;;;;;;;5071469;28;20036;-27
2024/01/25 00:42:32;;;;;;;10.70;2.58;;;;;;;;;;5070925;28;20020;-26
2024/01/25 00:44:59;;;;;;;10.93;2.65;;;;;;;;;;5073467;28;20534;-27
2024/01/25 00:47:26;;;;;;;12.13;2.53;;;;;;;;;;5073291;28;20142;-27
2024/01/25 00:49:53;;;;;;;10.23;2.53;;;;;;;;;;5073303;28;20468;-27
2024/01/25 00:52:20;;;;;;;11.40;2.42;;;;;;;;;;5070509;28;20021;-26
2024/01/25 00:54:48;;;;;;;10.05;2.65;;;;;;;;;;5071180;28;20035;-28
2024/01/25 00:57:15;;;;;;;11.43;2.95;;;;;;;;;;5073055;28;20028;-26
2024/01/25 00:59:42;;;;;;;10.10;2.38;;;;;;;;;;5073111;28;20029;-27
2024/01/25 01:02:12;;;;;;;16.30;2.97;;;;;;;;;;5073099;28;20036;-26
2024/01/25 01:04:39;;;;;;;13.57;2.75;;;;;;;;;;5069306;28;20016;-26
2024/01/25 01:07:06;;;;;;;10.73;2.60;;;;;;;;;;5072009;28;20047;-26
2024/01/25 01:09:33;;;;;;;12.48;3.17;;;;;;;;;;5072447;28;20524;-26
2024/01/25 01:12:00;;;;;;;8.63;2.58;;;;;;;;;;5072136;28;20111;-27
2024/01/25 01:14:27;;;;;;;10.88;2.38;;;;;;;;;;5072841;28;20025;-27
2024/01/25 01:16:55;;;;;;;11.55;3.03;;;;;;;;;;5068142;28;20085;-27
2024/01/25 01:19:22;;;;;;;18.17;2.90;;;;;;;;;;5072351;28;20078;-26
2024/01/25 01:21:49;;;;;;;12.10;2.97;;;;;;;;;;5072592;28;20490;-27
2024/01/25 01:24:16;;;;;;;11.85;2.53;;;;;;;;;;5072655;28;20028;-30
2024/01/25 01:26:43;;;;;;;10.52;2.85;;;;;;;;;;5072347;28;20091;-27
2024/01/25 01:29:10;;;;;;;11.20;2.60;;;;;;;;;;5067742;28;20580;-27
2024/01/25 01:31:37;;;;;;;10.40;2.72;;;;;;;;;;5072379;28;20225;-28
2024/01/25 01:34:04;;;;;;;11.95;2.30;;;;;;;;;;5090087;28;20028;-28
2024/01/25 01:36:31;;;;;;;11.52;2.63;;;;;;;;;;5092501;28;20032;-27
2024/01/25 01:38:57;;;;;;;15.18;2.92;;;;;;;;;;5092486;28;20024;-27
2024/01/25 01:41:24;;;;;;;9.52;2.60;;;;;;;;;;5088022;28;20404;-27
2024/01/25 01:43:55;;;;;;;10.23;2.80;;;;;;;;;;5092540;28;20034;-27
2024/01/25 01:46:27;;;;;;;10.73;2.75;;;;;;;;;;5092373;28;20020;-29
2024/01/25 01:48:54;;;;;;;11.57;2.67;;;;;;;;;;5092357;28;20020;-27
2024/01/25 01:51:22;;;;;;;11.02;2.22;;;;;;;;;;5090767;28;20371;-26
2024/01/25 01:53:49;;;;;;;10.63;2.63;;;;;;;;;;5089401;28;20085;-25
2024/01/25 01:56:16;;;;;;;7.85;2.63;;;;;;;;;;5092297;28;20028;-29
2024/01/25 01:58:43;;;;;;;9.48;2.47;;;;;;;;;;5092234;28;20103;-27
2024/01/25 02:01:10;;;;;;;11.35;2.45;;;;;;;;;;5092184;28;20056;-26
2024/01/25 02:03:37;;;;;;;7.72;2.35;;;;;;;;;;5089244;28;20418;-28
2024/01/25 02:06:04;;;;;;;13.27;2.25;;;;;;;;;;5090719;28;20055;-27
2024/01/25 02:08:31;;;;;;;8.15;2.10;;;;;;;;;;5092080;28;20035;-27
2024/01/25 02:10:58;;;;;;;7.38;2.17;;;;;;;;;;5091945;28;20067;-26
2024/01/25 02:13:26;;;;;;;6.75;2.00;;;;;;;;;;5092074;28;20494;-26
2024/01/25 02:15:54;;;;;;;8.75;2.20;;;;;;;;;;5087842;28;20063;-26
2024/01/25 02:18:21;;;;;;;10.82;2.45;;;;;;;;;;5091180;28;20024;-28
2024/01/25 02:20:48;;;;;;;9.25;2.55;;;;;;;;;;5091756;28;20524;-27
2024/01/25 02:23:15;;;;;;;7.15;2.00;;;;;;;;;;5091678;28;20032;-27
2024/01/25 02:25:42;;;;;;;9.73;2.42;;;;;;;;;;5091824;28;20039;-27
2024/01/25 02:28:09;;;;;;;8.27;2.35;;;;;;;;;;5087368;28;20028;-25
2024/01/25 02:30:36;;;;;;;8.35;2.22;;;;;;;;;;5091332;28;20040;-29
2024/01/25 02:33:05;;;;;;;12.23;2.30;;;;;;;;;;5091694;28;20506;-26
2024/01/25 02:35:32;;;;;;;7.55;2.00;;;;;;;;;;5091669;28;20070;-26
2024/01/25 02:37:59;;;;;;;11.43;2.40;;;;;;;;;;5091739;28;20024;-27
2024/01/25 02:40:26;;;;;;;8.93;2.42;;;;;;;;;;5087164;28;20032;-27
2024/01/25 02:42:53;;;;;;;11.10;2.67;;;;;;;;;;5091617;28;20099;-27
2024/01/25 02:45:20;;;;;;;12.07;2.35;;;;;;;;;;5091585;28;20036;-28
2024/01/25 02:47:47;;;;;;;8.05;2.20;;;;;;;;;;5091690;28;20020;-28
2024/01/25 02:50:14;;;;;;;11.88;2.33;;;;;;;;;;5091119;28;20024;-28
2024/01/25 02:52:41;;;;;;;8.27;1.65;;;;;;;;;;5087481;28;20024;-27
2024/01/25 02:55:09;;;;;;;9.98;2.10;;;;;;;;;;5091504;28;20367;-27
2024/01/25 02:57:36;;;;;;;11.05;2.50;;;;;;;;;;5091566;28;20027;-27
2024/01/25 03:00:03;;;;;;;9.93;2.13;;;;;;;;;;5091556;28;20397;-27
2024/01/25 03:02:30;;;;;;;6.80;2.00;;;;;;;;;;5090398;28;20063;-27
2024/01/25 03:04:57;;;;;;;7.97;1.98;;;;;;;;;;5087971;28;20482;-28
2024/01/25 03:07:24;;;;;;;4.55;1.60;;;;;;;;;;5091393;28;20737;-27
2024/01/25 03:09:51;;;;;;;6.88;2.28;;;;;;;;;;5091454;28;20155;-28
2024/01/25 03:12:18;;;;;;;8.82;2.20;;;;;;;;;;5091392;28;20032;-27
2024/01/25 03:14:44;;;;;;;8.48;1.88;;;;;;;;;;5089769;28;20020;-25
2024/01/25 03:17:12;;;;;;;9.77;1.98;;;;;;;;;;5088389;28;20069;-26
2024/01/25 03:19:39;;;;;;;6.90;2.03;;;;;;;;;;5091307;28;20032;-27
2024/01/25 03:22:06;;;;;;;7.25;1.80;;;;;;;;;;5091379;28;20028;-27
2024/01/25 03:24:33;;;;;;;7.00;1.85;;;;;;;;;;5091171;28;20434;-27
2024/01/25 03:27:00;;;;;;;10.75;2.22;;;;;;;;;;5088824;28;20470;-26
2024/01/25 03:29:27;;;;;;;12.52;2.15;;;;;;;;;;5088708;28;20036;-27
2024/01/25 03:31:54;;;;;;;6.53;1.83;;;;;;;;;;5091126;28;20040;-29
2024/01/25 03:34:21;;;;;;;6.85;1.85;;;;;;;;;;5093203;28;20099;-26
2024/01/25 03:36:48;;;;;;;10.40;1.80;;;;;;;;;;5094786;28;20123;-27
2024/01/25 03:39:15;;;;;;;15.32;2.45;;;;;;;;;;5092222;28;20073;-27
2024/01/25 03:41:42;;;;;;;8.23;1.65;;;;;;;;;;5093091;28;20146;-29
2024/01/25 03:44:09;;;;;;;11.38;2.00;;;;;;;;;;5094800;28;20031;-27
2024/01/25 03:46:35;;;;;;;8.27;1.75;;;;;;;;;;5094760;28;20529;-26
2024/01/25 03:49:04;;;;;;;7.28;2.00;;;;;;;;;;5094711;28;20051;-28
2024/01/25 03:51:31;;;;;;;7.22;1.70;;;;;;;;;;5091023;28;20044;-29
2024/01/25 03:53:58;;;;;;;7.95;2.10;;;;;;;;;;5093599;28;20028;-27
2024/01/25 03:56:26;;;;;;;10.40;2.08;;;;;;;;;;5094445;28;20020;-28
2024/01/25 03:58:53;;;;;;;7.20;2.15;;;;;;;;;;5094317;28;20028;-29
2024/01/25 04:01:20;;;;;;;6.82;2.38;;;;;;;;;;5094468;28;20139;-27
2024/01/25 04:03:47;;;;;;;7.32;2.08;;;;;;;;;;5090119;28;20028;-27
2024/01/25 04:06:14;;;;;;;12.18;2.05;;;;;;;;;;5094145;28;20029;-27
2024/01/25 04:08:41;;;;;;;5.15;1.58;;;;;;;;;;5094334;28;20025;-26
2024/01/25 04:11:09;;;;;;;8.68;2.00;;;;;;;;;;5094238;28;20122;-28
2024/01/25 04:13:36;;;;;;;7.40;2.47;;;;;;;;;;5094225;28;20028;-28
2024/01/25 04:16:03;;;;;;;5.75;1.65;;;;;;;;;;5090235;28;20025;-28
2024/01/25 04:18:30;;;;;;;5.00;1.50;;;;;;;;;;5094125;28;20031;-27
2024/01/25 04:20:57;;;;;;;10.18;1.75;;;;;;;;;;5094100;28;20032;-26
2024/01/25 04:23:24;;;;;;;10.27;1.98;;;;;;;;;;5094099;28;20031;-27
2024/01/25 04:25:51;;;;;;;9.52;2.05;;;;;;;;;;5093946;28;20032;-27
2024/01/25 04:28:18;;;;;;;7.72;1.92;;;;;;;;;;5089349;28;20032;-27
2024/01/25 04:30:45;;;;;;;4.80;1.70;;;;;;;;;;5093551;28;20119;-27
2024/01/25 04:33:12;;;;;;;9.25;1.98;;;;;;;;;;5093893;28;20024;-29
2024/01/25 04:35:39;;;;;;;7.18;1.77;;;;;;;;;;5093783;28;20024;-27
2024/01/25 04:38:06;;;;;;;9.20;1.83;;;;;;;;;;5093315;28;20028;-26
2024/01/25 04:40:33;;;;;;;7.13;2.03;;;;;;;;;;5089720;28;20100;-27
2024/01/25 04:43:00;;;;;;;12.30;2.10;;;;;;;;;;5093507;28;20501;-27
2024/01/25 04:45:27;;;;;;;9.82;1.90;;;;;;;;;;5093344;28;20097;-27
2024/01/25 04:47:54;;;;;;;6.75;1.67;;;;;;;;;;5092286;28;20028;-27
2024/01/25 04:50:21;;;;;;;9.48;1.92;;;;;;;;;;5092212;28;20553;-27
2024/01/25 04:52:48;;;;;;;5.43;1.52;;;;;;;;;;5090061;28;20577;-27
2024/01/25 04:55:15;;;;;;;7.35;2.33;;;;;;;;;;5093337;28;20095;-27
2024/01/25 04:57:43;;;;;;;6.85;1.80;;;;;;;;;;5093425;28;20581;-27
2024/01/25 05:00:10;;;;;;;5.80;1.55;;;;;;;;;;5093203;28;20036;-29
2024/01/25 05:02:37;;;;;;;8.18;1.75;;;;;;;;;;5091731;28;20024;-26
2024/01/25 05:05:04;;;;;;;4.22;1.60;;;;;;;;;;5090693;28;20028;-27
2024/01/25 05:07:31;;;;;;;6.47;1.63;;;;;;;;;;5093053;28;20028;-27
2024/01/25 05:09:58;;;;;;;5.88;1.73;;;;;;;;;;5093213;28;20516;-27
2024/01/25 05:12:25;;;;;;;9.35;1.83;;;;;;;;;;5093039;28;20506;-26
2024/01/25 05:14:52;;;;;;;4.38;1.45;;;;;;;;;;5090519;28;20057;-26
2024/01/25 05:17:19;;;;;;;7.15;1.80;;;;;;;;;;5091267;28;20185;-26
2024/01/25 05:19:46;;;;;;;9.55;2.10;;;;;;;;;;5092952;28;20032;-28
2024/01/25 05:22:13;;;;;;;5.90;1.55;;;;;;;;;;5092895;28;20028;-27
2024/01/25 05:24:40;;;;;;;5.45;1.73;;;;;;;;;;5092877;28;20028;-28
2024/01/25 05:27:07;;;;;;;8.25;1.75;;;;;;;;;;5089228;28;20032;-27
2024/01/25 05:29:34;;;;;;;9.52;1.77;;;;;;;;;;5091817;28;20086;-27
2024/01/25 05:32:01;;;;;;;6.50;1.92;;;;;;;;;;5092625;28;20036;-28
2024/01/25 05:34:28;;;;;;;6.65;1.33;;;;;;;;;;5092742;28;20501;-27
2024/01/25 05:36:55;;;;;;;12.10;1.70;;;;;;;;;;5092511;28;20063;-28
2024/01/25 05:39:22;;;;;;;9.40;1.98;;;;;;;;;;5088402;28;20159;-25
2024/01/25 05:41:48;;;;;;;7.13;1.55;;;;;;;;;;5092220;28;20089;-28
2024/01/25 05:44:15;;;;;;;6.03;1.67;;;;;;;;;;5092519;28;20544;-27
2024/01/25 05:46:42;;;;;;;5.95;1.65;;;;;;;;;;5092250;28;20393;-26
2024/01/25 05:49:10;;;;;;;10.27;1.70;;;;;;;;;;5092487;28;20020;-26
2024/01/25 05:51:37;;;;;;;5.60;1.63;;;;;;;;;;5087793;28;20032;-27
2024/01/25 05:54:04;;;;;;;5.50;1.50;;;;;;;;;;5092401;28;20031;-29
2024/01/25 05:56:31;;;;;;;6.45;1.67;;;;;;;;;;5091587;28;20036;-28
2024/01/25 05:58:58;;;;;;;8.48;1.65;;;;;;;;;;5092195;28;20028;-28
2024/01/25 06:01:25;;;;;;;7.75;1.75;;;;;;;;;;5090917;28;20497;-27
2024/01/25 06:03:52;;;;;;;6.10;1.58;;;;;;;;;;5088182;28;20063;-27
2024/01/25 06:06:19;;;;;;;5.25;1.52;;;;;;;;;;5091922;28;20465;-28
2024/01/25 06:08:45;;;;;;;10.40;1.60;;;;;;;;;;5092026;28;20024;-27
2024/01/25 06:11:12;;;;;;;5.75;1.50;;;;;;;;;;5091928;28;20554;-27
2024/01/25 06:13:39;;;;;;;6.05;1.50;;;;;;;;;;5091371;28;20024;-26
2024/01/25 06:16:06;;;;;;;6.47;2.00;;;;;;;;;;5088079;28;20054;-27
2024/01/25 06:18:33;;;;;;;5.10;1.80;;;;;;;;;;5092113;28;20054;-27
2024/01/25 06:21:00;;;;;;;3.67;1.27;;;;;;;;;;5091660;28;20031;-27
2024/01/25 06:23:27;;;;;;;7.97;2.08;;;;;;;;;;5091923;28;20030;-27
2024/01/25 06:25:54;;;;;;;6.35;1.95;;;;;;;;;;5090736;28;20020;-27
2024/01/25 06:28:21;;;;;;;5.95;1.88;;;;;;;;;;5088511;28;20028;-27
2024/01/25 06:30:48;;;;;;;6.60;1.50;;;;;;;;;;5091413;28;20044;-27
2024/01/25 06:33:15;;;;;;;5.05;1.70;;;;;;;;;;5091737;28;20428;-28
2024/01/25 06:35:42;;;;;;;7.13;1.65;;;;;;;;;;5091694;28;20115;-26
2024/01/25 06:38:09;;;;;;;5.80;1.95;;;;;;;;;;5089984;28;20032;-28
2024/01/25 06:40:36;;;;;;;6.30;1.77;;;;;;;;;;5089071;28;20036;-27
2024/01/25 06:43:03;;;;;;;6.78;1.90;;;;;;;;;;5091588;28;20032;-27
2024/01/25 06:45:30;;;;;;;7.03;1.42;;;;;;;;;;5091570;28;20474;-27
2024/01/25 06:47:57;;;;;;;6.93;1.50;;;;;;;;;;5091727;28;20089;-27
2024/01/25 06:50:24;;;;;;;5.72;1.63;;;;;;;;;;5088822;28;20421;-27
2024/01/25 06:52:53;;;;;;;6.25;1.50;;;;;;;;;;5089783;28;20024;-27
2024/01/25 06:55:20;;;;;;;7.40;2.15;;;;;;;;;;5091410;28;20082;-26
2024/01/25 06:57:47;;;;;;;6.47;1.52;;;;;;;;;;5091524;28;20111;-27
2024/01/25 07:00:15;;;;;;;6.65;1.58;;;;;;;;;;5091591;28;20183;-27
2024/01/25 07:02:43;;;;;;;8.88;1.88;;;;;;;;;;5087404;28;20040;-27
2024/01/25 07:05:10;;;;;;;6.53;1.40;;;;;;;;;;5090654;28;20436;-27
2024/01/25 07:07:38;;;;;;;7.28;1.40;;;;;;;;;;5091026;28;20482;-27
2024/01/25 07:10:08;;;;;;;7.35;1.92;;;;;;;;;;5095378;28;20024;-27
2024/01/25 07:12:35;;;;;;;7.85;2.03;;;;;;;;;;5095413;28;20032;-28
2024/01/25 07:15:02;;;;;;;7.97;1.65;;;;;;;;;;5090727;28;20100;-27
2024/01/25 07:17:29;;;;;;;6.95;1.45;;;;;;;;;;5095322;28;20032;-27
2024/01/25 07:19:56;;;;;;;6.57;1.50;;;;;;;;;;5095332;28;20465;-27
2024/01/25 07:22:24;;;;;;;7.25;1.92;;;;;;;;;;5095096;28;20445;-28
2024/01/25 07:24:51;;;;;;;5.97;1.85;;;;;;;;;;5093509;28;20035;-27
2024/01/25 07:27:18;;;;;;;6.78;1.92;;;;;;;;;;5088259;28;20057;-27
2024/01/25 07:29:45;;;;;;;5.63;1.70;;;;;;;;;;5094535;28;20557;-27
2024/01/25 07:32:12;;;;;;;7.15;1.90;;;;;;;;;;5094927;28;20090;-27
2024/01/25 07:34:39;;;;;;;5.95;1.60;;;;;;;;;;5094790;28;20537;-29
2024/01/25 07:37:06;;;;;;;7.35;1.88;;;;;;;;;;5094850;28;20107;-27
2024/01/25 07:39:33;;;;;;;3.78;1.30;;;;;;;;;;5090693;28;20028;-27
2024/01/25 07:42:00;;;;;;;5.28;1.30;;;;;;;;;;5094906;28;20024;-27
2024/01/25 07:44:27;;;;;;;7.50;1.88;;;;;;;;;;5094928;28;20054;-29
2024/01/25 07:46:54;;;;;;;8.90;2.10;;;;;;;;;;5094595;28;20024;-28
2024/01/25 07:49:21;;;;;;;5.63;1.80;;;;;;;;;;5093614;28;20020;-27
2024/01/25 07:51:48;;;;;;;4.82;1.40;;;;;;;;;;5091257;28;20486;-27
2024/01/25 07:54:15;;;;;;;7.82;2.03;;;;;;;;;;5094571;28;20036;-30
2024/01/25 07:56:42;;;;;;;3.55;1.40;;;;;;;;;;5094325;28;20103;-26
2024/01/25 07:59:09;;;;;;;6.30;1.70;;;;;;;;;;5094517;28;20024;-27
2024/01/25 08:01:36;;;;;;;6.50;1.92;;;;;;;;;;5092867;28;20756;-26
2024/01/25 08:04:03;;;;;;;8.70;1.95;;;;;;;;;;5091637;28;20044;-27
2024/01/25 08:06:30;;;;;;;5.82;1.50;;;;;;;;;;5094424;28;20514;-27
2024/01/25 08:08:57;;;;;;;7.28;1.70;;;;;;;;;;5092953;28;20028;-27
2024/01/25 08:11:24;;;;;;;6.00;1.55;;;;;;;;;;5094312;28;20040;-27
2024/01/25 08:13:51;;;;;;;6.22;1.63;;;;;;;;;;5092037;28;20039;-27
2024/01/25 08:16:21;;;;;;;5.22;1.88;;;;;;;;;;5091669;28;20025;-27
2024/01/25 08:18:48;;;;;;;5.07;1.60;;;;;;;;;;5093914;28;20058;-28
2024/01/25 08:21:15;;;;;;;6.38;1.70;;;;;;;;;;5093801;28;20106;-28
2024/01/25 08:23:42;;;;;;;4.47;1.25;;;;;;;;;;5094123;28;20023;-27
2024/01/25 08:26:09;;;;;;;6.68;1.63;;;;;;;;;;5090927;28;20024;-26
2024/01/25 08:28:37;;;;;;;6.82;1.80;;;;;;;;;;5092509;28;20044;-27
2024/01/25 08:31:04;;;;;;;3.70;1.50;;;;;;;;;;5093735;28;20128;-28
2024/01/25 08:33:31;;;;;;;6.80;1.48;;;;;;;;;;5093754;28;20077;-27
2024/01/25 08:35:58;;;;;;;8.10;2.00;;;;;;;;;;5093716;28;20416;-27
2024/01/25 08:38:25;;;;;;;11.45;1.90;;;;;;;;;;5090370;28;20028;-27
2024/01/25 08:40:52;;;;;;;6.25;1.60;;;;;;;;;;5092723;28;20047;-27
2024/01/25 08:43:19;;;;;;;6.05;1.40;;;;;;;;;;5093756;28;20024;-27
2024/01/25 08:45:46;;;;;;;6.88;1.67;;;;;;;;;;5093531;28;20038;-26
2024/01/25 08:48:13;;;;;;;4.90;1.50;;;;;;;;;;5093558;28;20378;-27
2024/01/25 08:50:40;;;;;;;6.72;1.80;;;;;;;;;;5089397;28;20039;-26
2024/01/25 08:53:07;;;;;;;5.85;1.63;;;;;;;;;;5093138;28;20497;-27
2024/01/25 08:55:34;;;;;;;7.22;1.70;;;;;;;;;;5093337;28;20046;-27
2024/01/25 08:58:01;;;;;;;7.50;1.90;;;;;;;;;;5093382;28;20497;-28
2024/01/25 09:00:27;;;;;;;4.88;1.52;;;;;;;;;;5093462;28;20057;-28
2024/01/25 09:02:54;;;;;;;6.43;2.13;;;;;;;;;;5088777;28;20023;-27
2024/01/25 09:05:21;;;;;;;5.65;1.75;;;;;;;;;;5093199;28;20074;-27
2024/01/25 09:07:50;;;;;;;7.25;1.60;;;;;;;;;;5093285;28;20036;-29
2024/01/25 09:10:18;;;;;;;8.05;1.75;;;;;;;;;;5093087;28;20025;-27
2024/01/25 09:12:45;;;;;;;7.45;1.52;;;;;;;;;;5092529;28;20032;-27
2024/01/25 09:15:12;;;;;;;5.38;1.70;;;;;;;;;;5088910;28;20099;-28
2024/01/25 09:17:39;;;;;;;6.88;1.63;;;;;;;;;;5092968;28;20766;-26
2024/01/25 09:20:07;;;;;;;5.95;2.05;;;;;;;;;;5092924;28;20078;-27
2024/01/25 09:22:34;;;;;;;5.25;1.27;;;;;;;;;;5092994;28;20020;-27
2024/01/25 09:25:01;;;;;;;7.97;1.50;;;;;;;;;;5091348;28;20077;-26
2024/01/25 09:27:28;;;;;;;4.90;1.55;;;;;;;;;;5089757;28;20020;-27
2024/01/25 09:29:55;;;;;;;7.43;1.70;;;;;;;;;;5092684;28;20083;-27
2024/01/25 09:32:22;;;;;;;7.00;1.98;;;;;;;;;;5091839;28;20138;-27
2024/01/25 09:34:49;;;;;;;7.25;1.92;;;;;;;;;;5092430;28;20485;-27
2024/01/25 09:37:17;;;;;;;6.00;1.80;;;;;;;;;;5090736;28;20111;-26
2024/01/25 09:39:44;;;;;;;4.78;1.52;;;;;;;;;;5090308;28;20061;-27
2024/01/25 09:42:12;;;;;;;5.07;1.48;;;;;;;;;;5092595;28;20027;-27
2024/01/25 09:44:39;;;;;;;5.35;1.45;;;;;;;;;;5092368;28;20034;-28
2024/01/25 09:47:09;;;;;;;7.10;1.65;;;;;;;;;;5092485;28;20504;-28
2024/01/25 09:49:36;;;;;;;4.85;1.73;;;;;;;;;;5089708;28;20028;-27
2024/01/25 09:52:04;;;;;;;7.18;1.63;;;;;;;;;;5090682;28;20024;-28
2024/01/25 09:54:38;;;;;;;7.50;1.92;;;;;;;;;;5092301;28;20047;-26
2024/01/25 09:57:07;;;;;;;4.35;1.42;;;;;;;;;;5092286;28;20486;-27
2024/01/25 09:59:34;;;;;;;7.53;1.58;;;;;;;;;;5092346;28;20024;-27
2024/01/25 10:02:03;;;;;;;7.47;2.15;;;;;;;;;;5088440;28;20050;-27
2024/01/25 10:04:30;;;;;;;5.78;1.70;;;;;;;;;;5091503;28;20073;-26
2024/01/25 10:06:57;;;;;;;5.28;1.50;;;;;;;;;;5092200;28;20023;-27
2024/01/25 10:09:24;;;;;;;7.80;1.70;;;;;;;;;;5092088;28;20077;-28
2024/01/25 10:11:51;;;;;;;5.78;1.77;;;;;;;;;;5092044;28;20032;-26
2024/01/25 10:14:18;;;;;;;6.60;1.88;;;;;;;;;;5087516;28;20028;-26
2024/01/25 10:16:48;;;;;;;4.97;1.52;;;;;;;;;;5091770;28;20585;-27
2024/01/25 10:19:15;;;;;;;5.80;1.65;;;;;;;;;;5091889;28;20073;-27
2024/01/25 10:21:42;;;;;;;6.03;1.80;;;;;;;;;;5091996;28;20110;-26
2024/01/25 10:24:10;;;;;;;4.65;1.30;;;;;;;;;;5092001;28;20044;-27
2024/01/25 10:26:37;;;;;;;6.43;1.85;;;;;;;;;;5087350;28;20016;-27
2024/01/25 10:29:04;;;;;;;5.90;1.50;;;;;;;;;;5091773;28;20032;-26
2024/01/25 10:31:32;;;;;;;5.65;1.48;;;;;;;;;;5091615;28;20052;-27
2024/01/25 10:33:58;;;;;;;5.57;1.40;;;;;;;;;;5091716;28;20107;-26
2024/01/25 10:36:27;;;;;;;4.75;1.50;;;;;;;;;;5091312;28;20055;-27
2024/01/25 10:38:55;;;;;;;6.75;2.05;;;;;;;;;;5087599;28;20429;-27
2024/01/25 10:41:25;;;;;;;5.40;1.40;;;;;;;;;;5091806;28;20024;-28
2024/01/25 10:43:52;;;;;;;6.50;1.65;;;;;;;;;;5091317;28;20741;-27
2024/01/25 10:46:19;;;;;;;5.72;1.90;;;;;;;;;;5091639;28;20083;-28
2024/01/25 10:48:47;;;;;;;6.45;1.90;;;;;;;;;;5090414;28;20032;-27
2024/01/25 10:51:18;;;;;;;6.97;1.70;;;;;;;;;;5088373;28;20028;-26
2024/01/25 10:53:45;;;;;;;8.35;1.90;;;;;;;;;;5091453;28;20096;-27
2024/01/25 10:56:13;;;;;;;6.93;1.85;;;;;;;;;;5091503;28;20115;-27
2024/01/25 10:58:42;;;;;;;8.07;2.10;;;;;;;;;;5091433;28;20043;-26
2024/01/25 11:01:12;;;;;;;7.43;2.15;;;;;;;;;;5089536;28;20024;-26
2024/01/25 11:03:43;;;;;;;13.20;2.33;;;;;;;;;;5089380;28;20026;-27
2024/01/25 11:06:11;;;;;;;6.32;1.92;;;;;;;;;;5091492;28;20028;-27
2024/01/25 11:08:41;;;;;;;8.57;1.92;;;;;;;;;;5091509;28;20035;-28
2024/01/25 11:11:09;;;;;;;7.10;1.75;;;;;;;;;;5091456;28;20040;-27
2024/01/25 11:13:39;;;;;;;4.55;1.50;;;;;;;;;;5087353;28;20028;-26
2024/01/25 11:16:20;;;;;;;9.48;1.95;;;;;;;;;;5089980;28;20028;-26
2024/01/25 11:18:58;;;;;;;5.57;1.83;;;;;;;;;;5091324;28;20020;-27
2024/01/25 11:21:43;;;;;;;9.50;1.95;;;;;;;;;;5091340;28;20066;-26
2024/01/25 11:24:18;;;;;;;9.10;2.25;;;;;;;;;;5091319;28;20057;-25
2024/01/25 11:26:45;;;;;;;7.00;2.20;;;;;;;;;;5087139;28;20048;-26
2024/01/25 11:29:16;;;;;;;7.30;1.88;;;;;;;;;;5091313;28;20099;-26
2024/01/25 11:31:46;;;;;;;5.63;2.30;;;;;;;;;;5090963;28;20040;-27
2024/01/25 11:34:15;;;;;;;8.02;2.20;;;;;;;;;;5091199;28;20031;-26
2024/01/25 11:36:42;;;;;;;8.65;2.28;;;;;;;;;;5089923;28;20709;-26
2024/01/25 11:39:12;;;;;;;9.20;2.63;;;;;;;;;;5087868;28;20020;-26
2024/01/25 11:41:40;;;;;;;10.10;2.13;;;;;;;;;;5091264;28;20028;-28
2024/01/25 11:44:07;;;;;;;12.88;2.00;;;;;;;;;;5091290;28;20028;-26
2024/01/25 11:46:34;;;;;;;10.18;2.03;;;;;;;;;;5091133;28;20493;-27
2024/01/25 11:49:01;;;;;;;10.45;2.35;;;;;;;;;;5088844;28;20032;-26
2024/01/25 11:51:28;;;;;;;10.27;2.33;;;;;;;;;;5088744;28;20036;-26
2024/01/25 11:53:55;;;;;;;13.15;2.53;;;;;;;;;;5091169;28;20032;-27
2024/01/25 11:56:30;;;;;;;11.98;2.50;;;;;;;;;;5094298;28;20117;-27
2024/01/25 11:58:57;;;;;;;10.32;2.42;;;;;;;;;;5094606;28;20027;-26
2024/01/25 12:01:25;;;;;;;13.88;2.83;;;;;;;;;;5091626;28;20111;-26
2024/01/25 12:03:52;;;;;;;16.77;2.88;;;;;;;;;;5093165;28;20023;-27
2024/01/25 12:06:19;;;;;;;16.42;2.60;;;;;;;;;;5094450;28;20028;-27
2024/01/25 12:08:48;;;;;;;14.63;2.33;;;;;;;;;;5094419;28;20032;-28
2024/01/25 12:11:15;;;;;;;15.35;3.30;;;;;;;;;;5094292;28;20044;-28
2024/01/25 12:13:43;;;;;;;22.10;2.50;;;;;;;;;;5090625;28;20543;-28
2024/01/25 12:16:10;;;;;;;14.15;2.88;;;;;;;;;;5093161;28;20406;-29
2024/01/25 12:18:38;;;;;;;12.52;2.88;;;;;;;;;;5094364;28;20098;-28
2024/01/25 12:21:06;;;;;;;13.10;2.38;;;;;;;;;;5094247;28;20044;-27
2024/01/25 12:23:33;;;;;;;17.80;2.75;;;;;;;;;;5094139;28;20505;-26
2024/01/25 12:26:11;;;;;;;26.45;3.30;;;;;;;;;;5089628;28;20093;-26
2024/01/25 12:28:38;;;;;;;15.25;3.30;;;;;;;;;;5094062;28;20493;-27
2024/01/25 12:31:07;;;;;;;19.45;2.88;;;;;;;;;;5093836;28;20395;-27
2024/01/25 12:33:34;;;;;;;24.60;3.13;;;;;;;;;;5093873;28;20046;-27
2024/01/25 12:36:03;;;;;;;12.90;2.67;;;;;;;;;;5093770;28;20020;-27
2024/01/25 12:38:33;;;;;;;23.45;3.20;;;;;;;;;;5089428;28;20028;-26
2024/01/25 12:41:00;;;;;;;29.58;3.65;;;;;;;;;;5093661;28;20051;-28
2024/01/25 12:43:27;;;;;;;16.30;3.15;;;;;;;;;;5093849;28;20024;-26
2024/01/25 12:45:54;;;;;;;21.45;3.47;;;;;;;;;;5093748;28;20052;-29
2024/01/25 12:48:21;;;;;;;30.05;3.70;;;;;;;;;;5092974;28;20031;-26
2024/01/25 12:50:48;;;;;;;25.50;2.97;;;;;;;;;;5089655;28;20032;-26
2024/01/25 12:53:15;;;;;;;36.42;3.60;;;;;;;;;;5093643;28;20036;-27
2024/01/25 12:55:44;;;;;;;20.20;2.78;;;;;;;;;;5093336;28;20027;-27
2024/01/25 12:58:10;;;;;;;26.23;3.03;;;;;;;;;;5093571;28;20093;-26
2024/01/25 13:00:37;;;;;;;24.67;3.17;;;;;;;;;;5092125;28;20024;-27
2024/01/25 13:03:04;;;;;;;22.27;2.97;;;;;;;;;;5090288;28;20111;-30
2024/01/25 13:05:33;;;;;;;26.73;3.17;;;;;;;;;;5093214;28;20028;-27
2024/01/25 13:08:03;;;;;;;25.08;3.15;;;;;;;;;;5093200;28;20500;-27
2024/01/25 13:10:30;;;;;;;13.73;2.42;;;;;;;;;;5093230;28;20080;-27
2024/01/25 13:12:58;;;;;;;27.73;3.33;;;;;;;;;;5089669;28;20488;-26
2024/01/25 13:15:26;;;;;;;23.08;3.15;;;;;;;;;;5090626;28;20127;-28
2024/01/25 13:17:53;;;;;;;19.27;2.83;;;;;;;;;;5093050;28;20515;-27
2024/01/25 13:20:20;;;;;;;26.60;3.17;;;;;;;;;;5093125;28;20024;-27
2024/01/25 13:22:47;;;;;;;26.20;3.80;;;;;;;;;;5093037;28;20039;-27
2024/01/25 13:25:14;;;;;;;21.25;3.65;;;;;;;;;;5090307;28;20024;-26
2024/01/25 13:27:41;;;;;;;15.98;2.78;;;;;;;;;;5090923;28;20499;-27
2024/01/25 13:30:11;;;;;;;17.77;3.30;;;;;;;;;;5092705;28;20050;-28
2024/01/25 13:32:38;;;;;;;16.70;2.60;;;;;;;;;;5092408;28;20138;-29
2024/01/25 13:35:05;;;;;;;15.00;2.42;;;;;;;;;;5092639;28;20026;-27
2024/01/25 13:37:32;;;;;;;22.27;3.08;;;;;;;;;;5087711;28;20494;-27
2024/01/25 13:39:59;;;;;;;24.73;3.13;;;;;;;;;;5091661;28;20028;-27
2024/01/25 13:42:26;;;;;;;23.25;3.22;;;;;;;;;;5092696;28;20026;-28
2024/01/25 13:44:53;;;;;;;12.50;2.53;;;;;;;;;;5092542;28;20098;-27
2024/01/25 13:47:20;;;;;;;20.38;2.75;;;;;;;;;;5092597;28;20482;-26
2024/01/25 13:49:47;;;;;;;16.83;2.50;;;;;;;;;;5088656;28;20032;-26
2024/01/25 13:52:21;;;;;;;23.90;3.42;;;;;;;;;;5091961;28;20067;-27
2024/01/25 13:54:49;;;;;;;16.52;2.63;;;;;;;;;;5092347;28;20074;-27
2024/01/25 13:57:16;;;;;;;20.90;2.60;;;;;;;;;;5092198;28;20028;-28
2024/01/25 13:59:43;;;;;;;16.30;2.97;;;;;;;;;;5092283;28;20036;-27
2024/01/25 14:02:10;;;;;;;16.55;2.63;;;;;;;;;;5087703;28;20036;-27
2024/01/25 14:04:37;;;;;;;11.63;2.20;;;;;;;;;;5092252;28;20116;-27
2024/01/25 14:07:04;;;;;;;14.27;2.60;;;;;;;;;;5092271;28;20058;-27
2024/01/25 14:09:32;;;;;;;14.07;2.80;;;;;;;;;;5092095;28;20036;-28
2024/01/25 14:11:59;;;;;;;16.40;2.83;;;;;;;;;;5091837;28;20036;-28
2024/01/25 14:14:26;;;;;;;18.05;2.75;;;;;;;;;;5087827;28;20024;-28
2024/01/25 14:16:53;;;;;;;19.40;2.97;;;;;;;;;;5091680;28;20020;-27
2024/01/25 14:19:20;;;;;;;16.63;2.70;;;;;;;;;;5091888;28;20039;-27
2024/01/25 14:21:48;;;;;;;16.70;2.83;;;;;;;;;;5092059;28;20020;-27
2024/01/25 14:24:15;;;;;;;12.70;2.58;;;;;;;;;;5091324;28;20807;-27
2024/01/25 14:26:43;;;;;;;15.70;3.05;;;;;;;;;;5088283;28;20020;-26
2024/01/25 14:29:10;;;;;;;18.35;2.63;;;;;;;;;;5091880;28;20040;-27
2024/01/25 14:31:37;;;;;;;17.05;2.70;;;;;;;;;;5091648;28;20822;-27
2024/01/25 14:34:04;;;;;;;17.75;2.72;;;;;;;;;;5091787;28;20024;-28
2024/01/25 14:36:31;;;;;;;16.77;2.60;;;;;;;;;;5090239;28;20050;-27
2024/01/25 14:38:58;;;;;;;15.95;2.58;;;;;;;;;;5088724;28;20508;-27